Terminal Aerodrome Forecast
Issued by NWS Pittsburgh, PA

Current Version | Previous Version | Graphics & Text | Print | Product List | Glossary On
Versions: 1 2 3 4 5 6 7 8 9 10 11 12 13 14 15 16 17 18 19 20 21 22 23 24 25 26 27 28 29 30 31 32 33 34 35 36 37 38 39
593
FTUS41 KPBZ 231139
TAFPIT
TAF
KPIT 231139Z 2312/2418 12005KT 1 1/2SM -DZ BR BKN003 OVC008
      TEMPO 2312/2313 4SM -RA BR OVC008
     FM231300 13006KT 4SM -RA BR OVC008
     FM231700 17007KT 4SM -RA OVC010
     FM240000 25007KT P6SM VCSH OVC010
     FM240300 27006KT P6SM OVC008
     FM241200 02003KT 4SM -SHRA OVC010=

USA.gov is the U.S. government's official web portal to all federal, state and local government web resources and services.